Time;durP1;ratioP1;P1;durP2;ratioP2;P2;SDS_P1;SDS_P2;PMS_P1;PMS_P2;Temp;Humidity;BMP_temperature;BMP_pressure;BME280_temperature;BME280_humidity;BME280_pressure;Samples;Min_cycle;Max_cycle;Signal;HPM_P1;HPM_P2
2022/11/16 00:01:05;;;;;;;10.85;7.80;;;10.60;99.90;;;;;;5040341;28;20042;-67
2022/11/16 00:03:32;;;;;;;9.65;7.78;;;10.60;99.90;;;;;;5043024;28;20147;-68
2022/11/16 00:06:00;;;;;;;10.40;7.35;;;10.50;99.90;;;;;;5042118;28;20033;-67
2022/11/16 00:08:28;;;;;;;9.60;7.72;;;10.50;99.90;;;;;;5043349;28;20448;-67
2022/11/16 00:10:53;;;;;;;8.75;7.85;;;10.50;99.90;;;;;;5032879;28;20033;-68
2022/11/16 00:13:19;;;;;;;9.25;8.35;;;10.50;99.90;;;;;;5037297;28;20052;-67
2022/11/16 00:15:57;;;;;;;9.68;8.68;;;10.50;99.90;;;;;;5041895;28;20382;-67
2022/11/16 00:18:23;;;;;;;9.95;8.48;;;10.60;99.90;;;;;;5042562;28;20136;-67
2022/11/16 00:20:49;;;;;;;9.93;8.77;;;10.60;99.90;;;;;;5035897;28;20103;-68
2022/11/16 00:23:15;;;;;;;10.50;9.40;;;10.60;99.90;;;;;;5034874;28;20076;-68
2022/11/16 00:25:41;;;;;;;10.25;9.25;;;10.60;99.90;;;;;;5039660;28;20498;-67
2022/11/16 00:28:07;;;;;;;9.75;8.75;;;10.50;99.90;;;;;;5035771;28;20037;-67
2022/11/16 00:30:32;;;;;;;10.90;9.05;;;10.50;99.90;;;;;;5042204;28;20040;-67
2022/11/16 00:33:02;;;;;;;12.70;10.25;;;10.60;99.90;;;;;;5033632;28;20060;-67
2022/11/16 00:35:28;;;;;;;11.68;9.20;;;10.60;99.90;;;;;;5042501;28;20037;-67
2022/11/16 00:37:54;;;;;;;10.50;9.30;;;10.60;99.90;;;;;;5038776;28;20067;-67
2022/11/16 00:40:20;;;;;;;10.10;9.10;;;10.60;99.90;;;;;;5045378;28;20458;-66
2022/11/16 00:42:46;;;;;;;11.30;10.07;;;10.60;99.90;;;;;;5034985;28;20108;-67
2022/11/16 00:45:11;;;;;;;13.13;10.82;;;10.60;99.90;;;;;;5039683;28;20044;-67
2022/11/16 00:47:37;;;;;;;13.65;11.18;;;10.60;99.90;;;;;;5039817;28;20040;-68
2022/11/16 00:50:03;;;;;;;12.48;10.55;;;10.60;99.90;;;;;;5035208;28;20381;-67
2022/11/16 00:52:29;;;;;;;12.75;11.40;;;10.60;99.90;;;;;;5046382;28;20060;-67
2022/11/16 00:54:55;;;;;;;12.82;11.35;;;10.60;99.90;;;;;;5061921;28;20365;-67
2022/11/16 00:57:22;;;;;;;13.93;11.65;;;10.60;99.90;;;;;;5060657;28;20385;-67
2022/11/16 00:59:47;;;;;;;12.45;10.82;;;10.60;99.90;;;;;;5043153;28;20524;-67
2022/11/16 01:02:13;;;;;;;12.20;10.93;;;10.60;99.90;;;;;;5042190;28;20116;-67
2022/11/16 01:04:39;;;;;;;14.15;12.15;;;10.60;99.90;;;;;;5043649;28;20071;-67
2022/11/16 01:07:04;;;;;;;12.45;11.13;;;10.60;99.90;;;;;;5042724;28;20079;-66
2022/11/16 01:09:30;;;;;;;14.93;11.75;;;10.60;99.90;;;;;;5045703;28;20045;-67
2022/11/16 01:12:08;;;;;;;15.15;12.02;;;10.60;99.90;;;;;;5060264;28;20068;-67
2022/11/16 01:14:38;;;;;;;15.38;11.38;;;10.70;99.90;;;;;;5060235;28;20043;-67
2022/11/16 01:17:04;;;;;;;12.85;11.02;;;10.70;99.90;;;;;;5049948;28;20123;-67
2022/11/16 01:19:29;;;;;;;13.60;12.20;;;10.70;99.90;;;;;;5036919;28;20124;-67
2022/11/16 01:21:56;;;;;;;16.60;11.82;;;10.70;99.90;;;;;;5057660;28;20396;-67
2022/11/16 01:24:23;;;;;;;14.75;11.65;;;10.70;99.90;;;;;;5058772;28;20067;-67
2022/11/16 01:26:49;;;;;;;13.70;11.50;;;10.80;99.90;;;;;;5048966;28;20112;-68
2022/11/16 01:29:15;;;;;;;14.50;12.60;;;10.70;99.90;;;;;;5055084;28;20124;-66
2022/11/16 01:31:41;;;;;;;13.45;11.77;;;10.70;99.90;;;;;;5060404;28;20585;-66
2022/11/16 01:34:06;;;;;;;13.90;11.10;;;10.70;99.90;;;;;;5044777;28;20040;-67
2022/11/16 01:36:35;;;;;;;13.20;11.73;;;10.80;99.90;;;;;;5059929;28;20072;-67
2022/11/16 01:39:01;;;;;;;14.45;12.65;;;10.80;99.90;;;;;;5055528;28;20036;-67
2022/11/16 01:41:27;;;;;;;14.27;11.82;;;10.80;99.90;;;;;;5056489;28;20553;-67
2022/11/16 01:43:56;;;;;;;14.07;11.75;;;10.80;99.90;;;;;;5060207;28;20115;-67
2022/11/16 01:46:23;;;;;;;14.95;13.23;;;10.80;99.90;;;;;;5042282;28;20440;-67
2022/11/16 01:48:59;;;;;;;14.32;11.93;;;10.80;99.90;;;;;;5053644;28;20854;-66
2022/11/16 01:51:26;;;;;;;13.45;11.45;;;10.80;99.90;;;;;;5044919;28;20106;-66
2022/11/16 01:53:52;;;;;;;14.43;12.18;;;10.80;99.90;;;;;;5043703;28;20064;-67
2022/11/16 01:56:19;;;;;;;13.43;12.02;;;10.70;99.90;;;;;;5061568;28;20036;-67
2022/11/16 01:58:45;;;;;;;12.88;11.57;;;10.80;99.90;;;;;;5056160;28;20047;-67
2022/11/16 02:01:11;;;;;;;14.57;11.88;;;10.70;99.90;;;;;;5042041;28;20052;-67
2022/11/16 02:03:37;;;;;;;18.52;12.68;;;10.80;99.90;;;;;;5060506;28;20040;-66
2022/11/16 02:06:30;;;;;;;14.60;12.07;;;10.80;99.90;;;;;;5077217;28;20039;-66
2022/11/16 02:12:18;;;;;;;14.35;11.70;;;10.80;99.90;;;;;;5062487;28;20048;-66
2022/11/16 02:14:54;;;;;;;16.58;12.27;;;10.80;99.90;;;;;;5062050;28;20404;-67
2022/11/16 02:17:44;;;;;;;17.17;11.88;;;10.80;99.90;;;;;;5061903;28;20044;-67
2022/11/16 02:20:28;;;;;;;13.20;11.90;;;10.80;99.90;;;;;;5042652;28;20135;-66
2022/11/16 02:23:06;;;;;;;13.95;11.10;;;10.80;99.90;;;;;;5062063;28;20032;-67
2022/11/16 02:26:02;;;;;;;16.58;12.00;;;10.80;99.90;;;;;;5027422;28;20036;-67
2022/11/16 02:29:01;;;;;;;13.82;10.80;;;10.80;99.90;;;;;;5061811;28;20492;-67
2022/11/16 02:31:33;;;;;;;12.75;11.35;;;10.80;99.90;;;;;;5045058;28;20048;-67
2022/11/16 02:34:01;;;;;;;13.80;12.23;;;10.80;99.90;;;;;;5060968;28;20716;-67
2022/11/16 02:36:26;;;;;;;15.95;11.75;;;10.80;99.90;;;;;;5058793;28;20032;-67
2022/11/16 02:38:59;;;;;;;14.70;11.43;;;10.80;99.90;;;;;;5047617;28;20079;-66
2022/11/16 02:41:31;;;;;;;17.45;12.23;;;10.80;99.90;;;;;;5059769;28;20041;-68
2022/11/16 02:44:09;;;;;;;15.38;11.52;;;10.80;99.90;;;;;;5040881;28;20121;-68
2022/11/16 02:46:37;;;;;;;16.45;11.32;;;10.90;99.90;;;;;;5055585;28;20498;-67
2022/11/16 02:49:08;;;;;;;14.18;10.80;;;10.90;99.90;;;;;;5058968;28;20045;-68
2022/11/16 02:51:37;;;;;;;14.25;11.00;;;10.90;99.90;;;;;;5057019;28;20045;-67
2022/11/16 02:54:17;;;;;;;14.43;10.88;;;10.90;99.90;;;;;;5047462;28;20055;-67
2022/11/16 02:56:49;;;;;;;18.08;11.38;;;10.90;99.90;;;;;;5076743;28;20412;-66
2022/11/16 02:59:15;;;;;;;16.58;10.68;;;10.90;99.90;;;;;;5067783;28;20102;-67
2022/11/16 03:01:48;;;;;;;15.05;10.90;;;10.90;99.90;;;;;;5060045;28;20471;-67
2022/11/16 03:04:25;;;;;;;13.57;10.15;;;10.90;99.90;;;;;;5063377;28;20472;-67
2022/11/16 03:06:52;;;;;;;13.38;9.95;;;10.90;99.90;;;;;;5047154;28;20041;-67
2022/11/16 03:09:23;;;;;;;17.15;10.90;;;10.90;99.90;;;;;;5065283;28;20465;-66
2022/11/16 03:11:58;;;;;;;14.93;10.50;;;10.90;99.90;;;;;;5062314;28;20040;-67
2022/11/16 03:14:43;;;;;;;17.30;10.32;;;10.80;99.90;;;;;;5053541;28;20045;-67
2022/11/16 03:17:24;;;;;;;18.42;11.30;;;10.80;99.90;;;;;;5061499;28;20041;-67
2022/11/16 03:20:19;;;;;;;15.30;10.70;;;10.80;99.90;;;;;;5068201;28;20037;-67
2022/11/16 03:22:56;;;;;;;20.58;10.52;;;10.70;99.90;;;;;;5054993;28;20041;-67
2022/11/16 03:25:26;;;;;;;16.67;11.02;;;10.70;99.90;;;;;;5053286;28;20052;-66
2022/11/16 03:28:06;;;;;;;19.85;11.85;;;10.80;99.90;;;;;;5062683;28;20124;-67
2022/11/16 03:30:37;;;;;;;15.80;10.20;;;10.80;99.90;;;;;;5065852;28;20036;-66
2022/11/16 03:33:08;;;;;;;22.08;12.50;;;10.70;99.90;;;;;;5057357;28;20048;-66
2022/11/16 03:35:43;;;;;;;17.05;11.60;;;10.70;99.90;;;;;;5044747;28;20040;-67
2022/11/16 03:38:10;;;;;;;13.10;10.27;;;10.80;99.90;;;;;;5046059;28;20044;-67
2022/11/16 03:40:38;;;;;;;17.58;12.23;;;10.70;99.90;;;;;;5040624;28;20464;-67
2022/11/16 03:43:06;;;;;;;21.83;12.77;;;10.70;99.90;;;;;;5026307;28;20171;-67
2022/11/16 03:45:32;;;;;;;15.73;10.98;;;10.70;99.90;;;;;;5049944;28;20112;-66
2022/11/16 03:47:59;;;;;;;15.55;11.93;;;10.70;99.90;;;;;;5040988;28;20068;-66
2022/11/16 03:50:25;;;;;;;15.20;10.95;;;10.70;99.90;;;;;;5059069;28;20392;-66
2022/11/16 03:52:51;;;;;;;21.67;13.60;;;10.70;99.90;;;;;;5060598;28;20083;-66
2022/11/16 03:55:17;;;;;;;19.08;13.27;;;10.70;99.90;;;;;;5067249;28;20040;-66
2022/11/16 03:57:43;;;;;;;16.33;11.98;;;10.70;99.90;;;;;;5046681;28;20927;-66
2022/11/16 04:00:09;;;;;;;22.48;13.65;;;10.70;99.90;;;;;;5061707;28;20353;-67
2022/11/16 04:02:35;;;;;;;18.52;13.52;;;10.70;99.90;;;;;;5047430;28;20598;-66
2022/11/16 04:24:28;;;;;;;16.63;12.68;;;10.70;99.90;;;;;;5063925;28;20102;-66
2022/11/16 04:29:42;;;;;;;24.70;15.48;;;10.70;99.90;;;;;;5046095;28;20076;-65
2022/11/16 04:37:49;;;;;;;24.13;15.60;;;10.60;99.90;;;;;;5062340;28;20007;-65
2022/11/16 04:40:15;;;;;;;20.15;14.82;;;10.60;99.90;;;;;;5057613;28;20032;-66
2022/11/16 04:42:41;;;;;;;25.00;15.43;;;10.70;99.90;;;;;;5064531;28;20524;-67
2022/11/16 04:48:06;;;;;;;32.25;17.80;;;10.70;99.90;;;;;;5026195;28;20036;-65
2022/11/16 04:50:32;;;;;;;18.15;14.00;;;10.70;99.90;;;;;;5058348;28;20033;-67
2022/11/16 04:52:58;;;;;;;33.97;17.42;;;10.70;99.90;;;;;;5061061;28;20053;-67
2022/11/16 04:55:24;;;;;;;22.08;14.90;;;10.70;99.90;;;;;;5061029;28;20048;-66
2022/11/16 04:57:50;;;;;;;15.77;12.93;;;10.70;99.90;;;;;;5063785;28;20041;-67
2022/11/16 05:00:16;;;;;;;19.35;14.60;;;10.70;99.90;;;;;;5038750;28;20127;-66
2022/11/16 05:02:42;;;;;;;21.67;15.27;;;10.70;99.90;;;;;;5043807;28;20087;-66
2022/11/16 05:05:08;;;;;;;16.52;13.80;;;10.70;99.90;;;;;;5048883;28;20044;-66
2022/11/16 05:07:34;;;;;;;22.50;16.02;;;10.70;99.90;;;;;;5060820;28;20079;-66
2022/11/16 05:09:59;;;;;;;20.70;15.55;;;10.70;99.90;;;;;;5062187;28;20071;-66
2022/11/16 05:12:27;;;;;;;18.50;14.27;;;10.70;99.90;;;;;;5062073;28;20076;-66
2022/11/16 05:14:54;;;;;;;28.25;16.42;;;10.70;99.90;;;;;;5060603;28;20043;-66
2022/11/16 05:17:21;;;;;;;25.23;16.08;;;10.70;99.90;;;;;;5056014;28;20540;-66
2022/11/16 05:22:31;;;;;;;27.50;17.65;;;10.70;99.90;;;;;;5059538;28;20064;-67
2022/11/16 05:24:57;;;;;;;17.85;14.68;;;10.70;99.90;;;;;;5061158;28;20079;-66
2022/11/16 05:27:24;;;;;;;20.00;14.60;;;10.70;99.90;;;;;;5059891;28;20069;-66
2022/11/16 05:29:50;;;;;;;30.80;18.45;;;10.70;99.90;;;;;;5062095;28;20044;-67
2022/11/16 05:32:18;;;;;;;23.73;16.55;;;10.70;99.90;;;;;;5055604;28;20125;-66
2022/11/16 05:34:44;;;;;;;19.65;15.60;;;10.70;99.90;;;;;;5059237;28;20048;-67
2022/11/16 05:37:10;;;;;;;23.83;16.33;;;10.60;99.90;;;;;;5060381;28;20047;-66
2022/11/16 05:39:36;;;;;;;27.67;16.48;;;10.70;99.90;;;;;;5046630;28;20485;-66
2022/11/16 05:42:02;;;;;;;19.40;15.32;;;10.70;99.90;;;;;;5041970;28;20047;-66
2022/11/16 05:44:27;;;;;;;38.15;19.70;;;10.70;99.90;;;;;;5060209;28;20044;-66
2022/11/16 05:46:54;;;;;;;21.40;15.93;;;10.70;99.90;;;;;;5056076;28;20047;-66
2022/11/16 05:49:21;;;;;;;20.38;16.10;;;10.70;99.90;;;;;;5057252;28;20115;-66
2022/11/16 05:51:47;;;;;;;33.63;18.00;;;10.60;99.90;;;;;;5040370;28;20527;-65
2022/11/16 05:54:15;;;;;;;28.90;17.85;;;10.60;99.90;;;;;;5040694;28;20053;-66
2022/11/16 05:56:41;;;;;;;49.70;22.90;;;10.70;99.90;;;;;;5038293;28;20040;-67
2022/11/16 05:59:07;;;;;;;46.45;21.38;;;10.70;99.90;;;;;;5045993;28;20043;-67
2022/11/16 06:01:33;;;;;;;26.63;17.13;;;10.70;99.90;;;;;;5045073;28;20051;-66
2022/11/16 06:04:00;;;;;;;47.55;21.00;;;10.70;99.90;;;;;;5039667;28;20115;-67
2022/11/16 06:06:26;;;;;;;51.05;22.15;;;10.70;99.90;;;;;;5046188;28;20250;-66
2022/11/16 06:08:52;;;;;;;44.60;20.88;;;10.70;99.90;;;;;;5057563;28;20037;-66
2022/11/16 06:11:18;;;;;;;54.67;22.40;;;10.70;99.90;;;;;;5041912;28;20198;-66
2022/11/16 06:13:44;;;;;;;39.38;21.27;;;10.70;99.90;;;;;;5056127;28;20115;-66
2022/11/16 06:16:10;;;;;;;56.33;23.95;;;10.70;99.90;;;;;;5062269;28;20406;-65
2022/11/16 06:18:37;;;;;;;40.25;21.33;;;10.60;99.90;;;;;;5060133;28;20219;-66
2022/11/16 06:21:04;;;;;;;29.48;19.17;;;10.70;99.90;;;;;;5037747;28;20070;-66
2022/11/16 06:23:29;;;;;;;43.35;21.35;;;10.70;99.90;;;;;;5059137;28;20079;-66
2022/11/16 06:25:55;;;;;;;45.25;22.08;;;10.70;99.90;;;;;;5055599;28;20064;-66
2022/11/16 06:28:22;;;;;;;53.92;24.10;;;10.70;99.90;;;;;;5043043;28;20729;-66
2022/11/16 06:30:48;;;;;;;32.75;19.42;;;10.70;99.90;;;;;;5041287;28;20044;-66
2022/11/16 06:33:14;;;;;;;41.90;18.92;;;10.60;99.90;;;;;;5058596;28;20449;-67
2022/11/16 06:35:43;;;;;;;26.38;15.52;;;10.70;99.90;;;;;;5064586;28;20047;-66
2022/11/16 06:38:09;;;;;;;24.83;15.32;;;10.60;99.90;;;;;;5040958;28;21123;-66
2022/11/16 06:40:36;;;;;;;27.13;15.77;;;10.70;99.90;;;;;;5037398;28;20131;-66
2022/11/16 06:43:03;;;;;;;36.75;17.40;;;10.70;99.90;;;;;;5055479;28;20041;-65
2022/11/16 06:45:28;;;;;;;47.00;19.65;;;10.70;99.90;;;;;;5054686;28;20401;-66
2022/11/16 06:47:54;;;;;;;23.92;15.10;;;10.70;99.90;;;;;;5033912;28;20033;-66
2022/11/16 06:50:20;;;;;;;23.42;14.10;;;10.70;99.90;;;;;;5033636;28;20055;-66
2022/11/16 06:52:47;;;;;;;35.47;17.60;;;10.70;99.90;;;;;;5053944;28;20083;-66
2022/11/16 06:55:13;;;;;;;22.40;15.02;;;10.70;99.90;;;;;;5049914;28;20136;-66
2022/11/16 06:57:39;;;;;;;71.13;22.95;;;10.70;99.90;;;;;;5055390;28;20506;-67
2022/11/16 07:00:06;;;;;;;26.52;15.13;;;10.70;99.90;;;;;;5050266;28;20112;-66
2022/11/16 07:02:36;;;;;;;74.55;23.05;;;10.70;99.90;;;;;;5050863;28;20041;-67
2022/11/16 07:05:02;;;;;;;17.25;13.00;;;10.60;99.90;;;;;;5049384;28;20049;-66
2022/11/16 07:07:28;;;;;;;27.90;16.05;;;10.60;99.90;;;;;;5038808;28;20048;-66
2022/11/16 07:09:54;;;;;;;19.73;14.63;;;10.60;99.90;;;;;;5059511;28;20443;-65
2022/11/16 07:12:19;;;;;;;26.75;17.13;;;10.60;99.90;;;;;;5057481;28;20036;-66
2022/11/16 07:14:45;;;;;;;29.13;16.90;;;10.60;99.90;;;;;;5039864;28;20060;-66
2022/11/16 07:17:11;;;;;;;31.50;22.58;;;10.60;99.90;;;;;;5057794;28;20145;-65
2022/11/16 07:19:36;;;;;;;45.88;20.38;;;10.60;99.90;;;;;;5041475;28;20037;-65
2022/11/16 07:22:03;;;;;;;19.15;15.70;;;10.60;99.90;;;;;;5047531;28;20636;-66
2022/11/16 07:24:28;;;;;;;66.80;24.30;;;10.60;99.90;;;;;;5055426;28;20041;-65
2022/11/16 07:26:54;;;;;;;80.85;25.48;;;10.60;99.90;;;;;;5039459;28;20120;-65
2022/11/16 07:29:21;;;;;;;122.57;32.22;;;10.60;99.90;;;;;;5058002;28;20061;-66
2022/11/16 07:31:47;;;;;;;86.65;27.23;;;10.60;99.90;;;;;;5059284;28;20097;-66
2022/11/16 07:34:12;;;;;;;88.43;28.48;;;10.50;99.90;;;;;;5054959;28;20040;-65
2022/11/16 07:36:38;;;;;;;60.40;23.77;;;10.60;99.90;;;;;;5059486;28;20497;-65
2022/11/16 07:39:05;;;;;;;92.03;27.85;;;10.60;99.90;;;;;;5059961;28;20036;-65
2022/11/16 07:41:31;;;;;;;40.47;19.83;;;10.50;99.90;;;;;;5062933;28;20177;-67
2022/11/16 07:43:57;;;;;;;36.13;20.48;;;10.60;99.90;;;;;;5064549;28;20115;-66
2022/11/16 07:46:23;;;;;;;30.45;18.58;;;10.60;99.90;;;;;;5045128;28;20397;-66
2022/11/16 07:48:49;;;;;;;89.20;28.40;;;10.50;99.90;;;;;;5057039;28;20052;-66
2022/11/16 07:51:16;;;;;;;33.28;18.67;;;10.50;99.90;;;;;;5063037;28;20047;-66
2022/11/16 07:53:43;;;;;;;59.88;23.40;;;10.50;99.90;;;;;;5063613;28;20102;-66
2022/11/16 07:56:10;;;;;;;36.70;19.58;;;10.50;99.90;;;;;;5060772;28;20041;-65
2022/11/16 07:58:36;;;;;;;31.67;17.52;;;10.50;99.90;;;;;;5049770;28;20040;-66
2022/11/16 08:01:13;;;;;;;21.17;14.63;;;10.50;99.90;;;;;;5048476;28;20094;-66
2022/11/16 08:03:40;;;;;;;151.30;113.20;;;10.50;99.90;;;;;;5063548;28;20041;-66
2022/11/16 08:06:27;;;;;;;25.83;16.90;;;10.50;99.90;;;;;;5058656;28;20246;-66
2022/11/16 08:08:53;;;;;;;37.05;17.20;;;10.50;99.90;;;;;;5061800;28;20037;-67
2022/11/16 08:11:19;;;;;;;24.05;15.00;;;10.50;99.90;;;;;;5060298;28;20396;-66
2022/11/16 08:13:45;;;;;;;48.00;18.35;;;10.50;99.90;;;;;;5061136;28;20037;-67
2022/11/16 08:16:17;;;;;;;58.90;21.23;;;10.50;99.90;;;;;;5053220;28;20499;-66
2022/11/16 08:18:43;;;;;;;42.85;17.45;;;10.50;99.90;;;;;;5045225;28;20098;-67
2022/11/16 08:21:11;;;;;;;41.60;17.45;;;10.40;99.90;;;;;;5062744;28;20086;-66
2022/11/16 08:23:39;;;;;;;25.02;14.63;;;10.50;99.90;;;;;;5063071;28;20044;-66
2022/11/16 08:26:13;;;;;;;34.78;15.65;;;10.40;99.90;;;;;;5063336;28;20043;-66
2022/11/16 08:28:39;;;;;;;38.13;17.20;;;10.50;99.90;;;;;;5062702;28;20095;-66
2022/11/16 08:31:13;;;;;;;20.23;12.93;;;10.40;99.90;;;;;;5062663;28;20043;-66
2022/11/16 08:33:39;;;;;;;21.38;12.77;;;10.50;99.90;;;;;;5056645;28;20140;-66
2022/11/16 08:36:06;;;;;;;25.63;14.40;;;10.50;99.90;;;;;;5045161;28;20120;-67
2022/11/16 08:38:32;;;;;;;20.52;13.23;;;10.50;99.90;;;;;;5044057;28;20033;-66
2022/11/16 08:40:58;;;;;;;36.38;16.15;;;10.50;99.90;;;;;;5048980;28;20045;-66
2022/11/16 08:43:24;;;;;;;28.10;13.50;;;10.60;99.90;;;;;;5063260;28;20059;-66
2022/11/16 08:45:52;;;;;;;15.07;11.70;;;10.60;99.90;;;;;;5047265;28;20119;-67
2022/11/16 08:48:18;;;;;;;51.20;19.02;;;10.60;99.90;;;;;;5042681;28;20087;-68
2022/11/16 08:50:43;;;;;;;46.65;16.98;;;10.60;99.90;;;;;;5063574;28;20509;-67
2022/11/16 08:53:09;;;;;;;59.10;19.67;;;10.70;99.90;;;;;;5044701;28;20144;-67
2022/11/16 08:55:35;;;;;;;26.00;14.50;;;10.70;99.90;;;;;;5065993;28;20558;-67
2022/11/16 08:58:01;;;;;;;17.42;12.00;;;10.70;99.90;;;;;;5063038;28;20089;-67
2022/11/16 09:00:27;;;;;;;33.95;15.48;;;10.70;99.90;;;;;;5045630;28;20045;-66
2022/11/16 09:02:52;;;;;;;38.10;16.88;;;10.80;99.90;;;;;;5045440;28;20051;-67
2022/11/16 09:05:18;;;;;;;28.58;14.32;;;10.80;99.90;;;;;;5063914;28;20082;-66
2022/11/16 09:07:44;;;;;;;38.03;15.95;;;10.90;99.90;;;;;;5046325;28;20098;-67
2022/11/16 09:10:11;;;;;;;55.53;22.38;;;11.00;99.90;;;;;;5058092;28;20320;-66
2022/11/16 09:12:37;;;;;;;36.45;17.33;;;11.10;99.90;;;;;;5065272;28;20044;-66
2022/11/16 09:15:05;;;;;;;31.70;25.25;;;11.10;99.90;;;;;;5062827;28;20044;-66
2022/11/16 09:17:30;;;;;;;149.05;129.70;;;11.20;99.90;;;;;;5067216;28;20239;-66
2022/11/16 09:19:56;;;;;;;40.53;23.38;;;11.30;99.90;;;;;;5058026;28;20472;-66
2022/11/16 09:22:22;;;;;;;28.38;18.10;;;11.30;99.90;;;;;;5062044;28;20216;-66
2022/11/16 09:24:48;;;;;;;38.80;19.63;;;11.50;99.90;;;;;;5061397;28;20361;-65
2022/11/16 09:27:14;;;;;;;27.60;17.83;;;11.60;99.90;;;;;;5066722;28;20039;-65
2022/11/16 09:29:39;;;;;;;28.33;18.13;;;11.80;99.90;;;;;;5040384;28;20040;-65
2022/11/16 09:32:05;;;;;;;32.88;19.77;;;11.80;99.90;;;;;;5063557;28;20090;-66
2022/11/16 09:34:33;;;;;;;20.58;15.02;;;11.80;99.90;;;;;;5045096;28;20044;-66
2022/11/16 09:37:00;;;;;;;21.42;15.70;;;11.80;99.90;;;;;;5062698;28;20368;-65
2022/11/16 09:39:31;;;;;;;24.45;16.83;;;11.80;99.90;;;;;;5041989;28;20159;-65
2022/11/16 09:42:23;;;;;;;20.42;16.58;;;11.80;99.90;;;;;;5060852;28;20043;-65
2022/11/16 09:45:23;;;;;;;29.25;18.15;;;11.80;99.90;;;;;;5040437;28;20182;-66
2022/11/16 09:48:01;;;;;;;26.48;18.55;;;12.10;99.90;;;;;;5060724;28;20032;-66
2022/11/16 09:50:42;;;;;;;29.45;18.65;;;13.00;99.90;;;;;;5041289;28;20062;-65
2022/11/16 09:53:16;;;;;;;24.27;16.45;;;13.40;99.90;;;;;;5056068;28;20137;-65
2022/11/16 09:55:52;;;;;;;21.83;15.15;;;13.60;99.90;;;;;;5058264;28;20179;-66
2022/11/16 09:58:52;;;;;;;18.52;13.88;;;13.50;99.90;;;;;;5062401;28;20033;-66
2022/11/16 10:01:40;;;;;;;19.48;14.05;;;13.40;99.90;;;;;;5038687;28;20322;-66
2022/11/16 10:04:19;;;;;;;15.45;12.18;;;13.30;99.90;;;;;;5057330;28;20045;-66
2022/11/16 10:07:06;;;;;;;14.18;11.95;;;13.00;99.90;;;;;;5040995;28;20511;-66
2022/11/16 10:09:34;;;;;;;15.52;12.25;;;12.80;99.90;;;;;;5060346;28;20481;-66
2022/11/16 10:12:47;;;;;;;15.35;12.75;;;12.60;99.90;;;;;;5044882;28;20040;-65
2022/11/16 10:15:59;;;;;;;20.38;12.55;;;12.50;99.90;;;;;;4961264;28;20494;-66
2022/11/16 10:18:52;;;;;;;16.33;11.60;;;12.40;99.90;;;;;;4933848;28;20055;-65
2022/11/16 10:21:42;;;;;;;15.93;12.27;;;12.40;99.90;;;;;;5055254;28;20117;-65
2022/11/16 10:24:40;;;;;;;15.23;11.98;;;12.40;99.90;;;;;;5043735;28;20090;-66
2022/11/16 10:27:38;;;;;;;14.15;10.48;;;12.40;99.90;;;;;;5055822;28;20147;-65
2022/11/16 10:30:17;;;;;;;12.82;9.35;;;12.30;99.90;;;;;;5041296;28;20074;-65
2022/11/16 10:32:46;;;;;;;15.10;9.50;;;12.20;99.90;;;;;;5057314;28;20072;-65
2022/11/16 10:35:23;;;;;;;15.45;9.45;;;12.20;99.90;;;;;;5059563;28;20127;-68
2022/11/16 10:37:50;;;;;;;15.25;8.30;;;12.20;99.90;;;;;;5058236;28;20098;-69
2022/11/16 10:40:22;;;;;;;14.27;7.93;;;12.10;99.90;;;;;;5054975;28;20078;-68
2022/11/16 10:43:12;;;;;;;13.43;6.97;;;12.10;99.90;;;;;;5059762;28;20128;-68
2022/11/16 10:45:42;;;;;;;10.93;6.25;;;12.20;99.90;;;;;;5055473;28;20544;-68
2022/11/16 10:48:36;;;;;;;11.73;6.03;;;12.10;99.90;;;;;;5059545;28;20044;-68
2022/11/16 10:51:03;;;;;;;11.20;4.68;;;12.10;99.90;;;;;;5061835;28;20188;-69
2022/11/16 10:53:35;;;;;;;10.00;5.28;;;12.00;99.90;;;;;;5057467;28;20136;-68
2022/11/16 10:56:13;;;;;;;10.20;4.70;;;12.00;99.90;;;;;;5058600;28;20137;-68
2022/11/16 10:59:04;;;;;;;10.70;5.35;;;11.90;99.90;;;;;;5056545;28;20064;-68
2022/11/16 11:01:32;;;;;;;11.00;5.55;;;11.90;99.90;;;;;;5057884;28;20740;-68
2022/11/16 11:04:20;;;;;;;8.07;4.95;;;11.90;99.90;;;;;;5055420;28;20040;-68
2022/11/16 11:06:51;;;;;;;9.10;4.75;;;11.90;99.90;;;;;;5043513;28;20051;-68
2022/11/16 11:09:37;;;;;;;7.00;4.22;;;11.80;99.90;;;;;;5040049;28;20089;-68
2022/11/16 11:12:38;;;;;;;11.50;4.38;;;11.90;99.90;;;;;;5061031;28;20131;-68
2022/11/16 11:15:10;;;;;;;14.73;3.80;;;11.90;99.90;;;;;;5062094;28;20064;-68
2022/11/16 11:17:38;;;;;;;10.48;3.47;;;11.90;99.90;;;;;;5066090;28;20044;-68
2022/11/16 11:20:15;;;;;;;12.57;3.25;;;11.80;99.90;;;;;;5065582;28;20036;-68
2022/11/16 11:22:42;;;;;;;15.10;3.30;;;11.80;99.90;;;;;;5065655;28;20094;-68
2022/11/16 11:25:40;;;;;;;9.52;3.20;;;11.80;99.90;;;;;;5064019;28;20037;-68
2022/11/16 11:28:17;;;;;;;8.52;3.10;;;11.80;99.90;;;;;;5033435;28;20675;-65
2022/11/16 11:31:02;;;;;;;10.85;5.65;;;11.80;99.90;;;;;;5063098;28;20499;-64
2022/11/16 11:33:33;;;;;;;11.02;2.88;;;11.80;99.90;;;;;;5060907;28;20131;-65
2022/11/16 11:36:20;;;;;;;12.70;3.15;;;11.80;99.90;;;;;;5066165;28;20048;-65
2022/11/16 11:39:23;;;;;;;10.20;2.95;;;11.80;99.90;;;;;;5058932;28;20033;-65
2022/11/16 11:42:06;;;;;;;5.85;2.85;;;11.70;99.90;;;;;;4964166;28;20038;-66
2022/11/16 11:44:53;;;;;;;10.05;3.20;;;11.70;99.90;;;;;;4960195;28;20036;-65
2022/11/16 11:47:45;;;;;;;9.43;3.28;;;11.70;99.90;;;;;;5037890;28;20116;-65
2022/11/16 11:50:18;;;;;;;10.07;3.10;;;11.70;99.90;;;;;;5061461;28;20029;-65
2022/11/16 11:53:11;;;;;;;7.57;3.15;;;11.60;99.90;;;;;;5045587;28;20057;-66
2022/11/16 11:55:38;;;;;;;8.20;3.10;;;11.60;99.90;;;;;;5064861;28;20051;-65
2022/11/16 11:58:09;;;;;;;11.93;2.63;;;11.50;99.90;;;;;;5062082;28;20109;-66
2022/11/16 12:01:07;;;;;;;8.68;2.67;;;11.50;99.90;;;;;;5065238;28;20102;-66
2022/11/16 12:03:50;;;;;;;10.30;3.10;;;11.50;99.90;;;;;;5045314;28;20052;-66
2022/11/16 12:06:48;;;;;;;8.30;3.17;;;11.40;99.90;;;;;;5059322;28;20055;-65
2022/11/16 12:09:17;;;;;;;10.68;3.45;;;11.30;99.90;;;;;;5039647;28;20056;-64
2022/11/16 12:12:11;;;;;;;11.55;3.50;;;11.30;99.90;;;;;;5061185;28;20032;-64
2022/11/16 12:14:48;;;;;;;7.70;2.75;;;11.30;99.90;;;;;;5059338;28;20045;-65
2022/11/16 12:17:41;;;;;;;9.65;3.10;;;11.30;99.90;;;;;;5063773;28;20480;-65
2022/11/16 12:20:20;;;;;;;12.70;3.05;;;11.30;99.90;;;;;;5043978;28;20074;-65
2022/11/16 12:22:51;;;;;;;8.38;3.00;;;11.30;99.90;;;;;;5063505;28;20037;-64
2022/11/16 12:25:45;;;;;;;14.43;3.00;;;11.40;99.90;;;;;;5065416;28;20071;-65
2022/11/16 12:28:29;;;;;;;11.52;2.75;;;11.40;99.90;;;;;;5060799;28;20029;-64
2022/11/16 12:31:35;;;;;;;13.68;2.40;;;11.40;99.90;;;;;;5057141;28;20368;-64
2022/11/16 12:34:23;;;;;;;9.32;2.15;;;11.40;99.90;;;;;;5044675;28;20071;-65
2022/11/16 12:37:12;;;;;;;10.15;2.10;;;11.40;99.90;;;;;;5063478;28;20542;-65
2022/11/16 12:39:55;;;;;;;11.55;2.13;;;11.50;99.90;;;;;;5058285;28;20404;-68
2022/11/16 12:42:28;;;;;;;13.38;2.75;;;11.40;99.90;;;;;;5059036;28;20032;-65
2022/11/16 12:45:13;;;;;;;9.30;2.20;;;11.40;99.90;;;;;;5059371;28;20356;-65
2022/11/16 12:47:59;;;;;;;8.57;2.38;;;11.40;99.90;;;;;;5056208;28;20049;-65
2022/11/16 12:50:46;;;;;;;10.48;2.10;;;11.30;99.90;;;;;;5059823;28;20089;-64
2022/11/16 12:53:18;;;;;;;10.25;2.75;;;11.30;99.90;;;;;;5058032;28;20067;-65
2022/11/16 12:55:55;;;;;;;8.15;2.25;;;11.30;99.90;;;;;;5043664;28;20056;-65
2022/11/16 12:59:17;;;;;;;11.93;2.70;;;11.30;99.90;;;;;;5064378;28;20480;-65
2022/11/16 13:01:52;;;;;;;12.63;2.47;;;11.30;99.90;;;;;;5001272;28;20049;-65
2022/11/16 13:04:20;;;;;;;;;;;11.20;99.90;;;;;;5003123;28;20073;-65
2022/11/16 13:06:57;;;;;;;12.50;2.25;;;11.10;99.90;;;;;;5044435;28;20021;-65
2022/11/16 13:09:29;;;;;;;12.93;2.60;;;11.10;99.90;;;;;;5062856;28;20041;-65
2022/11/16 13:11:59;;;;;;;10.00;2.55;;;11.00;99.90;;;;;;5058907;28;20506;-65
2022/11/16 13:14:31;;;;;;;11.50;2.05;;;11.10;99.90;;;;;;5058492;28;20045;-65
2022/11/16 13:16:58;;;;;;;13.27;2.90;;;11.10;99.90;;;;;;5060277;28;20052;-66
2022/11/16 13:19:25;;;;;;;12.60;2.22;;;11.10;99.90;;;;;;5056950;28;20047;-65
2022/11/16 13:22:12;;;;;;;11.48;2.63;;;11.10;99.90;;;;;;5062620;28;20040;-65
2022/11/16 13:24:53;;;;;;;12.95;3.15;;;11.20;99.90;;;;;;5062731;28;20094;-65
2022/11/16 13:27:34;;;;;;;11.77;2.72;;;11.30;99.90;;;;;;5057693;28;20554;-65
2022/11/16 13:30:16;;;;;;;11.77;2.45;;;11.40;99.90;;;;;;5060818;28;20044;-65
2022/11/16 13:33:22;;;;;;;11.68;2.22;;;11.50;99.90;;;;;;5043674;28;20044;-65